createdAt,value
2018-12-17T00:00:38.894Z,5.50
2018-12-17T00:03:07.346Z,5.50
2018-12-17T00:05:41.670Z,5.50
2018-12-17T00:08:07.009Z,5.60
2018-12-17T00:10:35.261Z,5.60
2018-12-17T00:13:03.514Z,5.60
2018-12-17T00:15:31.993Z,5.60
2018-12-17T00:18:00.246Z,5.60
2018-12-17T00:20:28.503Z,5.60
2018-12-17T00:22:56.778Z,5.70
2018-12-17T00:25:25.035Z,5.70
2018-12-17T00:27:53.302Z,5.70
2018-12-17T00:30:21.575Z,5.70
2018-12-17T00:32:49.835Z,5.70
2018-12-17T00:35:18.079Z,5.70
2018-12-17T00:37:46.791Z,5.70
2018-12-17T00:40:15.523Z,5.70
2018-12-17T00:42:43.786Z,5.70
2018-12-17T00:45:12.061Z,5.60
2018-12-17T00:47:40.311Z,5.60
2018-12-17T00:50:08.646Z,5.60
2018-12-17T00:52:36.935Z,5.60
2018-12-17T00:55:05.650Z,5.70
2018-12-17T00:57:33.927Z,5.80
2018-12-17T01:00:02.516Z,5.80
2018-12-17T01:02:30.770Z,5.70
2018-12-17T01:04:59.035Z,5.80
2018-12-17T01:07:30.827Z,5.80
2018-12-17T01:09:59.078Z,5.80
2018-12-17T01:12:27.335Z,5.70
2018-12-17T01:14:55.804Z,5.70
2018-12-17T01:17:24.054Z,5.70
2018-12-17T01:19:52.623Z,5.70
2018-12-17T01:22:20.967Z,5.60
2018-12-17T01:24:49.222Z,5.60
2018-12-17T01:27:17.470Z,5.60
2018-12-17T01:29:45.757Z,5.60
2018-12-17T01:32:14.006Z,5.60
2018-12-17T01:34:42.263Z,5.60
2018-12-17T01:37:10.534Z,5.60
2018-12-17T01:39:38.788Z,5.60
2018-12-17T01:42:08.032Z,5.80
2018-12-17T01:44:36.414Z,5.80
2018-12-17T01:47:04.671Z,5.80
2018-12-17T01:49:32.923Z,5.70
2018-12-17T01:52:01.220Z,5.60
2018-12-17T01:54:29.492Z,5.50
2018-12-17T01:56:57.747Z,5.50
2018-12-17T01:59:26.027Z,5.50
2018-12-17T02:01:54.287Z,5.50
2018-12-17T02:04:22.543Z,5.50
2018-12-17T02:06:50.906Z,5.50
2018-12-17T02:09:19.807Z,5.50
2018-12-17T02:11:48.063Z,5.60
2018-12-17T02:14:16.344Z,5.60
2018-12-17T02:16:44.599Z,5.60
2018-12-17T02:19:12.855Z,5.60
2018-12-17T02:21:41.136Z,5.60
2018-12-17T02:24:09.391Z,5.60
2018-12-17T02:26:37.843Z,5.70
2018-12-17T02:29:06.335Z,5.70
2018-12-17T02:31:34.594Z,5.70
2018-12-17T02:34:02.861Z,5.70
2018-12-17T02:36:31.202Z,5.70
2018-12-17T02:38:59.475Z,5.60
2018-12-17T02:41:27.711Z,5.60
2018-12-17T02:43:56.183Z,5.60
2018-12-17T02:46:24.440Z,5.60
2018-12-17T02:48:52.787Z,5.60
2018-12-17T02:51:21.435Z,5.70
2018-12-17T02:53:49.700Z,5.70
2018-12-17T02:56:17.952Z,5.70
2018-12-17T02:58:46.410Z,5.60
2018-12-17T03:01:14.658Z,5.60
2018-12-17T03:03:42.962Z,5.60
2018-12-17T03:06:11.319Z,5.70
2018-12-17T03:08:39.695Z,5.80
2018-12-17T03:11:08.403Z,5.80
2018-12-17T03:13:36.752Z,5.70
2018-12-17T03:16:05.003Z,5.70
2018-12-17T03:18:33.280Z,5.60
2018-12-17T03:21:01.613Z,5.60
2018-12-17T03:23:29.884Z,5.60
2018-12-17T03:25:58.123Z,5.70
2018-12-17T03:28:26.404Z,5.80
2018-12-17T03:30:54.684Z,5.70
2018-12-17T03:33:23.042Z,5.70
2018-12-17T03:35:51.631Z,5.70
2018-12-17T03:38:19.899Z,5.60
2018-12-17T03:40:48.164Z,5.60
2018-12-17T03:43:16.518Z,5.70
2018-12-17T03:45:44.852Z,5.80
2018-12-17T03:48:13.112Z,5.70
2018-12-17T03:50:41.552Z,5.70
2018-12-17T03:53:09.803Z,5.60
2018-12-17T03:55:38.123Z,5.60
2018-12-17T03:58:06.622Z,5.70
2018-12-17T04:00:34.875Z,5.70
2018-12-17T04:03:03.283Z,5.70
2018-12-17T04:05:31.821Z,5.70
2018-12-17T04:08:00.095Z,5.70
2018-12-17T04:10:28.340Z,5.70
2018-12-17T04:12:56.683Z,5.80
2018-12-17T04:15:25.472Z,5.80
2018-12-17T04:17:53.728Z,5.80
2018-12-17T04:20:22.465Z,5.80
2018-12-17T04:22:50.723Z,5.90
2018-12-17T04:25:18.972Z,5.90
2018-12-17T04:27:47.274Z,5.90
2018-12-17T04:30:15.519Z,5.90
2018-12-17T04:32:43.799Z,5.80
2018-12-17T04:35:12.075Z,5.80
2018-12-17T04:37:40.337Z,5.80
2018-12-17T04:40:08.595Z,5.80
2018-12-17T04:42:37.254Z,5.80
2018-12-17T04:45:05.671Z,5.70
2018-12-17T04:47:33.931Z,5.80
2018-12-17T04:50:02.227Z,5.80
2018-12-17T04:52:30.701Z,5.80
2018-12-17T04:54:58.956Z,5.90
2018-12-17T04:57:27.230Z,5.90
2018-12-17T04:59:55.487Z,5.90
2018-12-17T05:02:23.739Z,5.90
2018-12-17T05:04:52.075Z,5.90
2018-12-17T05:07:31.110Z,5.90
2018-12-17T05:09:59.385Z,5.90
2018-12-17T05:12:29.343Z,6.00
2018-12-17T05:14:57.823Z,6.00
2018-12-17T05:17:26.102Z,6.00
2018-12-17T05:19:54.744Z,6.00
2018-12-17T05:22:23.079Z,6.00
2018-12-17T05:24:51.798Z,6.10
2018-12-17T05:27:20.057Z,6.10
2018-12-17T05:29:48.302Z,6.10
2018-12-17T05:32:16.589Z,6.10
2018-12-17T05:34:44.842Z,6.10
2018-12-17T05:37:13.191Z,6.10
2018-12-17T05:39:41.479Z,6.20
2018-12-17T05:42:09.738Z,6.10
2018-12-17T05:44:38.508Z,6.10
2018-12-17T05:47:07.102Z,6.10
2018-12-17T05:49:35.361Z,6.20
2018-12-17T05:52:03.702Z,6.10
2018-12-17T05:54:31.991Z,6.20
2018-12-17T05:57:00.242Z,6.10
2018-12-17T05:59:28.738Z,6.00
2018-12-17T06:01:57.090Z,5.90
2018-12-17T06:04:25.354Z,5.90
2018-12-17T06:06:54.787Z,5.90
2018-12-17T06:09:25.842Z,5.90
2018-12-17T06:11:55.158Z,5.90
2018-12-17T06:14:26.258Z,5.90
2018-12-17T06:16:54.699Z,6.10
2018-12-17T06:19:22.980Z,6.20
2018-12-17T06:21:52.066Z,6.20
2018-12-17T06:24:20.795Z,6.10
2018-12-17T06:26:50.051Z,6.00
2018-12-17T06:29:19.695Z,5.90
2018-12-17T06:31:49.913Z,5.90
2018-12-17T06:34:19.479Z,5.90
2018-12-17T06:36:47.746Z,5.90
2018-12-17T06:39:16.037Z,5.90
2018-12-17T06:41:44.311Z,5.90
2018-12-17T06:44:12.554Z,6.00
2018-12-17T06:46:40.839Z,6.00
2018-12-17T06:49:09.130Z,6.10
2018-12-17T06:51:37.782Z,6.10
2018-12-17T06:54:06.442Z,6.10
2018-12-17T06:56:34.698Z,6.00
2018-12-17T06:59:02.954Z,6.00
2018-12-17T07:01:32.112Z,5.90
2018-12-17T07:04:00.359Z,5.90
2018-12-17T07:06:28.613Z,6.00
2018-12-17T07:08:57.598Z,6.00
2018-12-17T07:11:25.959Z,6.00
2018-12-17T07:13:54.222Z,6.00
2018-12-17T07:16:22.944Z,6.00
2018-12-17T07:18:51.530Z,6.00
2018-12-17T07:21:19.798Z,6.20
2018-12-17T07:23:49.688Z,6.20
2018-12-17T07:26:17.931Z,6.30
2018-12-17T07:28:46.186Z,6.30
2018-12-17T07:31:14.471Z,6.30
2018-12-17T07:33:42.739Z,6.30
2018-12-17T07:36:11.018Z,6.40
2018-12-17T07:38:39.845Z,6.40
2018-12-17T07:41:08.099Z,6.40
2018-12-17T07:43:37.339Z,6.30
2018-12-17T07:46:05.635Z,6.30
2018-12-17T07:48:35.291Z,6.30
2018-12-17T07:51:03.574Z,6.20
2018-12-17T07:53:31.875Z,6.30
2018-12-17T07:56:00.114Z,6.30
2018-12-17T07:58:28.521Z,6.30
2018-12-17T08:00:57.102Z,6.30
2018-12-17T08:03:25.362Z,6.30
2018-12-17T08:05:53.618Z,6.40
2018-12-17T08:08:23.127Z,6.40
2018-12-17T08:10:51.386Z,6.30
2018-12-17T08:13:20.035Z,6.40
2018-12-17T08:15:48.339Z,6.40
2018-12-17T08:18:21.083Z,6.40
2018-12-17T08:20:50.550Z,6.40
2018-12-17T08:23:18.832Z,6.40
2018-12-17T08:25:47.085Z,6.40
2018-12-17T08:28:15.449Z,6.40
2018-12-17T08:30:43.755Z,6.40
2018-12-17T08:33:12.282Z,6.50
2018-12-17T08:35:40.544Z,6.50
2018-12-17T08:38:08.847Z,6.60
2018-12-17T08:40:37.112Z,6.60
2018-12-17T08:43:05.541Z,6.70
2018-12-17T08:45:33.786Z,6.70
2018-12-17T08:48:02.165Z,6.70
2018-12-17T08:50:31.414Z,6.70
2018-12-17T08:52:59.739Z,6.70
2018-12-17T08:55:28.002Z,6.80
2018-12-17T08:57:56.585Z,6.90
2018-12-17T09:00:24.837Z,6.90
2018-12-17T09:02:53.091Z,6.90
2018-12-17T09:05:21.739Z,7.00
2018-12-17T09:07:50.615Z,7.10
2018-12-17T09:10:18.867Z,7.00
2018-12-17T09:12:47.148Z,7.10
2018-12-17T09:15:15.482Z,7.20
2018-12-17T09:17:44.103Z,7.20
2018-12-17T09:20:13.204Z,7.20
2018-12-17T09:22:41.939Z,7.30
2018-12-17T09:25:10.275Z,7.30
2018-12-17T09:27:38.980Z,7.40
2018-12-17T09:30:07.939Z,7.50
2018-12-17T09:32:36.203Z,7.50
2018-12-17T09:35:04.728Z,7.60
2018-12-17T09:37:33.004Z,7.90
2018-12-17T09:40:01.291Z,8.30
2018-12-17T09:42:29.555Z,8.70
2018-12-17T09:44:57.810Z,9.00
2018-12-17T09:47:26.070Z,9.30
2018-12-17T09:49:54.702Z,9.40
2018-12-17T09:52:22.955Z,9.30
2018-12-17T09:54:51.215Z,9.20
2018-12-17T09:57:20.745Z,9.10
2018-12-17T09:59:49.049Z,9.10
2018-12-17T10:02:17.290Z,9.10
2018-12-17T10:04:45.591Z,9.10
2018-12-17T10:07:13.843Z,9.00
2018-12-17T10:09:42.097Z,8.90
2018-12-17T10:12:11.038Z,8.70
2018-12-17T10:14:39.319Z,8.60
2018-12-17T10:17:07.578Z,8.50
2018-12-17T10:19:35.926Z,8.50
2018-12-17T10:22:04.219Z,8.50
2018-12-17T10:24:32.495Z,8.40
2018-12-17T10:27:00.774Z,8.40
2018-12-17T10:29:29.042Z,8.40
2018-12-17T10:31:57.306Z,8.30
2018-12-17T10:34:25.763Z,8.20
2018-12-17T10:36:54.019Z,8.20
2018-12-17T10:39:22.279Z,8.30
2018-12-17T10:41:50.607Z,8.10
2018-12-17T10:44:18.859Z,8.20
2018-12-17T10:46:47.120Z,8.30
2018-12-17T10:49:15.400Z,8.30
2018-12-17T10:51:43.663Z,8.30
2018-12-17T10:54:12.054Z,8.30
2018-12-17T10:56:40.583Z,8.30
2018-12-17T10:59:08.843Z,8.30
2018-12-17T11:01:42.720Z,8.40
2018-12-17T11:04:12.955Z,8.50
2018-12-17T11:06:41.230Z,8.60
2018-12-17T11:09:10.407Z,8.80
2018-12-17T11:11:38.654Z,8.90
2018-12-17T11:14:06.906Z,9.00
2018-12-17T11:16:35.356Z,9.00
2018-12-17T11:19:03.594Z,9.10
2018-12-17T11:21:31.935Z,9.10
2018-12-17T11:24:00.227Z,9.10
2018-12-17T11:26:28.814Z,9.00
2018-12-17T11:28:57.070Z,9.10
2018-12-17T11:31:25.351Z,9.10
2018-12-17T11:33:53.607Z,9.10
2018-12-17T11:36:21.862Z,9.10
2018-12-17T11:38:51.450Z,9.10
2018-12-17T11:41:19.722Z,9.10
2018-12-17T11:43:47.981Z,9.10
2018-12-17T11:46:16.251Z,9.10
2018-12-17T11:48:44.506Z,9.10
2018-12-17T11:51:12.765Z,9.20
2018-12-17T11:53:41.049Z,9.10
2018-12-17T11:56:09.294Z,9.10
2018-12-17T11:58:37.559Z,9.00
2018-12-17T12:01:07.100Z,9.00
2018-12-17T12:03:36.483Z,8.90
2018-12-17T12:06:04.818Z,9.00
2018-12-17T12:08:33.107Z,9.00
2018-12-17T12:11:01.382Z,9.00
2018-12-17T12:13:29.628Z,9.00
2018-12-17T12:15:57.992Z,9.00
2018-12-17T12:18:26.274Z,9.00
2018-12-17T12:20:54.654Z,9.00
2018-12-17T12:23:23.451Z,9.00
2018-12-17T12:25:51.867Z,9.10
2018-12-17T12:28:20.444Z,9.20
2018-12-17T12:30:48.722Z,9.10
2018-12-17T12:33:16.971Z,9.10
2018-12-17T12:35:47.402Z,9.00
2018-12-17T12:38:15.674Z,9.20
2018-12-17T12:40:43.936Z,9.20
2018-12-17T12:43:12.192Z,9.20
2018-12-17T12:45:40.795Z,9.20
2018-12-17T12:48:09.032Z,9.10
2018-12-17T12:50:37.295Z,9.10
2018-12-17T12:53:05.626Z,9.00
2018-12-17T12:55:33.867Z,9.00
2018-12-17T12:58:03.771Z,9.00
2018-12-17T13:00:32.323Z,9.00
2018-12-17T13:03:00.572Z,9.00
2018-12-17T13:05:28.823Z,8.90
2018-12-17T13:07:57.166Z,8.90
2018-12-17T13:10:25.460Z,8.80
2018-12-17T13:12:53.889Z,8.70
2018-12-17T13:15:22.241Z,8.80
2018-12-17T13:17:51.681Z,8.90
2018-12-17T13:20:19.934Z,9.00
2018-12-17T13:22:48.210Z,9.10
2018-12-17T13:25:21.136Z,9.10
2018-12-17T13:27:52.906Z,9.10
2018-12-17T13:30:21.202Z,9.00
2018-12-17T13:32:50.174Z,8.90
2018-12-17T13:35:18.454Z,8.90
2018-12-17T13:37:46.718Z,8.80
2018-12-17T13:40:15.450Z,8.60
2018-12-17T13:42:43.727Z,8.60
2018-12-17T13:45:12.562Z,8.40
2018-12-17T13:47:40.814Z,8.50
2018-12-17T13:50:14.918Z,8.60
2018-12-17T13:52:46.186Z,8.80
2018-12-17T13:55:14.706Z,8.80
2018-12-17T13:57:43.062Z,8.80
2018-12-17T14:00:11.842Z,8.80
2018-12-17T14:02:40.523Z,8.70
2018-12-17T14:05:08.865Z,8.70
2018-12-17T14:07:37.168Z,8.70
2018-12-17T14:10:13.274Z,8.60
2018-12-17T14:12:41.534Z,8.60
2018-12-17T14:15:09.879Z,8.60
2018-12-17T14:17:40.134Z,8.50
2018-12-17T14:20:14.174Z,8.40
2018-12-17T14:22:42.458Z,8.40
2018-12-17T14:25:10.834Z,8.50
2018-12-17T14:27:39.086Z,8.50
2018-12-17T14:30:09.155Z,8.60
2018-12-17T14:32:37.554Z,8.60
2018-12-17T14:35:06.058Z,8.60
2018-12-17T14:37:36.578Z,8.60
2018-12-17T14:40:07.002Z,8.50
2018-12-17T14:42:35.380Z,8.40
2018-12-17T14:45:04.978Z,8.40
2018-12-17T14:47:41.470Z,8.50
2018-12-17T14:50:11.096Z,8.50
2018-12-17T14:52:40.003Z,8.50
2018-12-17T14:55:10.229Z,8.50
2018-12-17T14:57:40.114Z,8.40
2018-12-17T15:00:10.932Z,8.50
2018-12-17T15:02:39.179Z,8.40
2018-12-17T15:05:09.011Z,8.40
2018-12-17T15:07:38.294Z,8.40
2018-12-17T15:10:06.955Z,8.30
2018-12-17T15:12:35.587Z,8.40
2018-12-17T15:15:06.989Z,8.40
2018-12-17T15:17:35.295Z,8.40
2018-12-17T15:20:05.802Z,8.40
2018-12-17T15:22:34.066Z,8.20
2018-12-17T15:25:02.489Z,8.20
2018-12-17T15:27:30.747Z,8.20
2018-12-17T15:29:58.986Z,8.10
2018-12-17T15:32:27.226Z,8.10
2018-12-17T15:34:55.959Z,8.00
2018-12-17T15:37:24.296Z,8.10
2018-12-17T15:39:52.546Z,8.10
2018-12-17T15:42:21.961Z,8.00
2018-12-17T15:44:50.387Z,7.90
2018-12-17T15:47:18.713Z,7.90
2018-12-17T15:49:47.042Z,7.80
2018-12-17T15:52:15.426Z,7.90
2018-12-17T15:54:43.679Z,7.90
2018-12-17T15:57:12.363Z,7.90
2018-12-17T15:59:40.606Z,7.90
2018-12-17T16:02:08.859Z,7.80
2018-12-17T16:04:37.135Z,7.80
2018-12-17T16:07:05.386Z,7.80
2018-12-17T16:09:33.807Z,7.80
2018-12-17T16:12:02.098Z,7.90
2018-12-17T16:14:31.143Z,7.90
2018-12-17T16:16:59.605Z,7.90
2018-12-17T16:19:28.283Z,8.00
2018-12-17T16:21:56.546Z,8.00
2018-12-17T16:24:24.806Z,7.90
2018-12-17T16:26:53.087Z,7.90
2018-12-17T16:29:21.338Z,7.80
2018-12-17T16:31:49.594Z,7.90
2018-12-17T16:34:17.882Z,7.90
2018-12-17T16:36:46.650Z,7.90
2018-12-17T16:39:14.906Z,7.90
2018-12-17T16:41:43.537Z,8.00
2018-12-17T16:44:11.786Z,8.20
2018-12-17T16:46:40.038Z,8.10
2018-12-17T16:49:08.474Z,8.00
2018-12-17T16:51:36.822Z,7.90
2018-12-17T16:54:05.165Z,7.90
2018-12-17T16:56:33.451Z,7.90
2018-12-17T16:59:01.713Z,7.80
2018-12-17T17:01:29.966Z,7.80
2018-12-17T17:03:58.498Z,7.80
2018-12-17T17:06:26.766Z,7.80
2018-12-17T17:08:55.025Z,7.80
2018-12-17T17:11:23.314Z,7.70
2018-12-17T17:13:51.594Z,7.80
2018-12-17T17:16:20.010Z,7.70
2018-12-17T17:18:48.398Z,7.70
2018-12-17T17:21:17.378Z,7.60
2018-12-17T17:23:46.455Z,7.60
2018-12-17T17:26:14.956Z,7.60
2018-12-17T17:28:44.140Z,7.60
2018-12-17T17:31:12.413Z,7.60
2018-12-17T17:33:41.384Z,7.70
2018-12-17T17:36:09.629Z,7.70
2018-12-17T17:38:38.630Z,7.70
2018-12-17T17:41:06.924Z,7.70
2018-12-17T17:43:35.188Z,7.70
2018-12-17T17:46:03.509Z,7.70
2018-12-17T17:48:32.090Z,7.70
2018-12-17T17:51:00.364Z,7.90
2018-12-17T17:53:28.614Z,7.90
2018-12-17T17:55:56.898Z,7.90
2018-12-17T17:58:25.246Z,7.90
2018-12-17T18:00:53.578Z,7.80
2018-12-17T18:03:21.863Z,7.90
2018-12-17T18:05:50.132Z,7.80
2018-12-17T18:08:19.375Z,7.80
2018-12-17T18:10:47.710Z,7.80
2018-12-17T18:13:15.959Z,7.70
2018-12-17T18:15:44.211Z,7.70
2018-12-17T18:18:12.522Z,7.70
2018-12-17T18:20:40.770Z,7.70
2018-12-17T18:23:09.030Z,7.70
2018-12-17T18:25:39.571Z,7.60
2018-12-17T18:28:07.801Z,7.70
2018-12-17T18:30:37.304Z,7.70
2018-12-17T18:33:05.874Z,7.60
2018-12-17T18:35:37.705Z,7.60
2018-12-17T18:38:06.408Z,7.60
2018-12-17T18:40:34.734Z,7.60
2018-12-17T18:43:03.019Z,7.70
2018-12-17T18:45:31.312Z,7.60
2018-12-17T18:47:59.562Z,7.60
2018-12-17T18:50:27.817Z,7.70
2018-12-17T18:52:56.341Z,7.70
2018-12-17T18:55:24.607Z,7.70
2018-12-17T18:57:52.856Z,7.70
2018-12-17T19:00:21.135Z,7.70
2018-12-17T19:02:49.382Z,7.80
2018-12-17T19:05:17.637Z,7.80
2018-12-17T19:07:45.913Z,7.80
2018-12-17T19:10:14.241Z,7.70
2018-12-17T19:12:42.486Z,7.80
2018-12-17T19:15:10.818Z,7.80
2018-12-17T19:17:39.182Z,7.80
2018-12-17T19:20:07.512Z,7.90
2018-12-17T19:22:35.787Z,7.90
2018-12-17T19:25:05.189Z,7.90
2018-12-17T19:27:33.446Z,7.90
2018-12-17T19:30:01.815Z,7.80
2018-12-17T19:32:30.069Z,7.80
2018-12-17T19:34:58.320Z,7.80
2018-12-17T19:37:26.914Z,7.80
2018-12-17T19:39:55.515Z,7.80
2018-12-17T19:42:23.773Z,7.80
2018-12-17T19:44:52.034Z,7.80
2018-12-17T19:47:21.293Z,7.80
2018-12-17T19:49:49.547Z,7.80
2018-12-17T19:52:17.870Z,7.80
2018-12-17T19:54:46.095Z,7.80
2018-12-17T19:57:14.349Z,7.80
2018-12-17T19:59:42.721Z,7.90
2018-12-17T20:02:10.987Z,7.80
2018-12-17T20:04:39.250Z,7.80
2018-12-17T20:07:07.534Z,7.90
2018-12-17T20:09:35.790Z,7.80
2018-12-17T20:12:04.139Z,7.80
2018-12-17T20:14:32.418Z,7.80
2018-12-17T20:17:00.689Z,7.80
2018-12-17T20:19:28.938Z,7.80
2018-12-17T20:21:57.284Z,7.80
2018-12-17T20:24:25.555Z,7.80
2018-12-17T20:26:54.111Z,7.80
2018-12-17T20:29:22.385Z,7.80
2018-12-17T20:31:50.642Z,7.80
2018-12-17T20:34:18.893Z,7.80
2018-12-17T20:36:47.170Z,7.80
2018-12-17T20:39:15.434Z,7.80
2018-12-17T20:41:44.111Z,7.80
2018-12-17T20:44:12.770Z,7.90
2018-12-17T20:46:41.021Z,7.90
2018-12-17T20:49:09.284Z,7.90
2018-12-17T20:51:37.707Z,7.90
2018-12-17T20:54:05.922Z,7.90
2018-12-17T20:56:34.184Z,7.90
2018-12-17T20:59:02.470Z,7.90
2018-12-17T21:01:30.802Z,7.90
2018-12-17T21:03:59.062Z,7.90
2018-12-17T21:06:27.959Z,7.90
2018-12-17T21:08:56.241Z,7.90
2018-12-17T21:11:24.492Z,7.80
2018-12-17T21:13:52.770Z,7.80
2018-12-17T21:16:21.018Z,7.80
2018-12-17T21:18:49.274Z,7.80
2018-12-17T21:21:18.009Z,7.80
2018-12-17T21:23:46.292Z,7.80
2018-12-17T21:26:14.546Z,7.70
2018-12-17T21:28:42.915Z,7.80
2018-12-17T21:31:11.170Z,7.80
2018-12-17T21:33:39.422Z,7.80
2018-12-17T21:36:07.699Z,7.80
2018-12-17T21:38:35.959Z,7.80
2018-12-17T21:41:04.206Z,7.80
2018-12-17T21:43:36.083Z,7.80
2018-12-17T21:46:02.774Z,7.80
2018-12-17T21:48:31.238Z,7.80
2018-12-17T21:50:59.806Z,7.80
2018-12-17T21:53:28.066Z,7.80
2018-12-17T21:55:56.322Z,7.80
2018-12-17T21:58:24.651Z,7.70
2018-12-17T22:00:52.902Z,7.70
2018-12-17T22:03:21.181Z,7.70
2018-12-17T22:05:49.458Z,7.70
2018-12-17T22:08:18.896Z,7.70
2018-12-17T22:10:47.151Z,7.70
2018-12-17T22:13:15.570Z,7.60
2018-12-17T22:15:43.818Z,7.60
2018-12-17T22:18:12.070Z,7.60
2018-12-17T22:20:40.359Z,7.50
2018-12-17T22:23:08.613Z,7.40
2018-12-17T22:25:36.878Z,7.40
2018-12-17T22:28:05.167Z,7.40
2018-12-17T22:30:33.414Z,7.40
2018-12-17T22:33:01.690Z,7.30
2018-12-17T22:35:30.058Z,7.30
2018-12-17T22:37:58.306Z,7.20
2018-12-17T22:40:26.574Z,7.20
2018-12-17T22:42:54.851Z,7.10
2018-12-17T22:45:23.287Z,7.10
2018-12-17T22:47:51.534Z,7.00
2018-12-17T22:50:19.862Z,7.00
2018-12-17T22:52:48.114Z,6.90
2018-12-17T22:55:16.366Z,6.80
2018-12-17T22:57:44.964Z,6.80
2018-12-17T23:00:13.369Z,6.80
2018-12-17T23:02:41.626Z,6.80
2018-12-17T23:05:09.906Z,6.70
2018-12-17T23:07:38.234Z,6.70
2018-12-17T23:10:18.415Z,6.70
2018-12-17T23:12:58.546Z,6.60
2018-12-17T23:15:38.726Z,6.60
2018-12-17T23:18:06.588Z,6.60
2018-12-17T23:20:34.899Z,6.70
2018-12-17T23:23:03.182Z,6.70
2018-12-17T23:25:31.581Z,6.70
2018-12-17T23:27:59.931Z,6.60
2018-12-17T23:30:28.210Z,6.60
2018-12-17T23:32:58.492Z,6.50
2018-12-17T23:35:26.756Z,6.50
2018-12-17T23:37:55.249Z,6.40
2018-12-17T23:40:23.470Z,6.40
2018-12-17T23:42:51.731Z,6.50
2018-12-17T23:45:20.183Z,6.50
2018-12-17T23:47:48.814Z,6.50
2018-12-17T23:50:17.141Z,6.50
2018-12-17T23:52:45.420Z,6.50
2018-12-17T23:55:13.671Z,6.60
2018-12-17T23:57:41.922Z,6.60
